sensor_id;sensor_type;location;lat;lon;timestamp;P1;durP1;ratioP1;P2;durP2;ratioP2
3261;SDS011;1643;47.746;9.000;2023-04-15T00:00:25;2.70;;;1.70;;
3261;SDS011;1643;47.746;9.000;2023-04-15T00:02:50;1.53;;;1.43;;
3261;SDS011;1643;47.746;9.000;2023-04-15T00:05:16;5.33;;;2.33;;
3261;SDS011;1643;47.746;9.000;2023-04-15T00:07:42;3.27;;;1.67;;
3261;SDS011;1643;47.746;9.000;2023-04-15T00:10:08;1.93;;;1.60;;
3261;SDS011;1643;47.746;9.000;2023-04-15T00:12:34;2.30;;;1.53;;
3261;SDS011;1643;47.746;9.000;2023-04-15T00:15:00;2.10;;;1.40;;
3261;SDS011;1643;47.746;9.000;2023-04-15T00:17:26;4.13;;;1.57;;
3261;SDS011;1643;47.746;9.000;2023-04-15T00:19:51;7.57;;;1.60;;
3261;SDS011;1643;47.746;9.000;2023-04-15T00:22:18;3.50;;;1.83;;
3261;SDS011;1643;47.746;9.000;2023-04-15T00:24:44;1.63;;;1.53;;
3261;SDS011;1643;47.746;9.000;2023-04-15T00:27:09;4.60;;;2.07;;
3261;SDS011;1643;47.746;9.000;2023-04-15T00:29:35;2.00;;;1.63;;
3261;SDS011;1643;47.746;9.000;2023-04-15T00:32:01;2.20;;;1.47;;
3261;SDS011;1643;47.746;9.000;2023-04-15T00:34:27;2.37;;;1.70;;
3261;SDS011;1643;47.746;9.000;2023-04-15T00:36:53;5.63;;;2.17;;
3261;SDS011;1643;47.746;9.000;2023-04-15T00:39:18;8.43;;;1.90;;
3261;SDS011;1643;47.746;9.000;2023-04-15T00:41:44;5.40;;;2.17;;
3261;SDS011;1643;47.746;9.000;2023-04-15T00:44:10;2.13;;;1.93;;
3261;SDS011;1643;47.746;9.000;2023-04-15T00:46:36;3.40;;;1.77;;
3261;SDS011;1643;47.746;9.000;2023-04-15T00:49:03;1.60;;;1.50;;
3261;SDS011;1643;47.746;9.000;2023-04-15T00:51:30;2.10;;;1.70;;
3261;SDS011;1643;47.746;9.000;2023-04-15T00:53:59;2.40;;;2.07;;
3261;SDS011;1643;47.746;9.000;2023-04-15T00:56:26;3.20;;;2.10;;
3261;SDS011;1643;47.746;9.000;2023-04-15T00:58:53;2.40;;;1.70;;
3261;SDS011;1643;47.746;9.000;2023-04-15T01:01:22;1.90;;;1.47;;
3261;SDS011;1643;47.746;9.000;2023-04-15T01:03:50;2.47;;;2.03;;
3261;SDS011;1643;47.746;9.000;2023-04-15T01:06:16;3.10;;;1.80;;
3261;SDS011;1643;47.746;9.000;2023-04-15T01:08:42;3.33;;;1.90;;
3261;SDS011;1643;47.746;9.000;2023-04-15T01:11:08;2.10;;;1.90;;
3261;SDS011;1643;47.746;9.000;2023-04-15T01:13:36;1.97;;;1.77;;
3261;SDS011;1643;47.746;9.000;2023-04-15T01:16:02;4.50;;;1.60;;
3261;SDS011;1643;47.746;9.000;2023-04-15T01:18:28;2.03;;;1.80;;
3261;SDS011;1643;47.746;9.000;2023-04-15T01:20:54;2.00;;;1.80;;
3261;SDS011;1643;47.746;9.000;2023-04-15T01:23:20;4.30;;;1.63;;
3261;SDS011;1643;47.746;9.000;2023-04-15T01:25:47;2.00;;;1.90;;
3261;SDS011;1643;47.746;9.000;2023-04-15T01:28:14;5.30;;;1.70;;
3261;SDS011;1643;47.746;9.000;2023-04-15T01:30:40;3.97;;;1.90;;
3261;SDS011;1643;47.746;9.000;2023-04-15T01:33:05;2.90;;;1.60;;
3261;SDS011;1643;47.746;9.000;2023-04-15T01:35:32;4.33;;;1.77;;
3261;SDS011;1643;47.746;9.000;2023-04-15T01:38:07;3.03;;;1.53;;
3261;SDS011;1643;47.746;9.000;2023-04-15T01:40:34;2.00;;;1.80;;
3261;SDS011;1643;47.746;9.000;2023-04-15T01:43:00;3.50;;;1.70;;
3261;SDS011;1643;47.746;9.000;2023-04-15T01:45:26;1.60;;;1.50;;
3261;SDS011;1643;47.746;9.000;2023-04-15T01:47:52;1.30;;;1.20;;
3261;SDS011;1643;47.746;9.000;2023-04-15T01:50:18;3.03;;;1.30;;
3261;SDS011;1643;47.746;9.000;2023-04-15T01:52:45;3.03;;;1.70;;
3261;SDS011;1643;47.746;9.000;2023-04-15T01:55:13;2.10;;;1.90;;
3261;SDS011;1643;47.746;9.000;2023-04-15T01:57:39;3.20;;;1.67;;
3261;SDS011;1643;47.746;9.000;2023-04-15T02:00:05;5.17;;;1.80;;
3261;SDS011;1643;47.746;9.000;2023-04-15T02:02:34;2.47;;;1.50;;
3261;SDS011;1643;47.746;9.000;2023-04-15T02:04:59;3.13;;;2.03;;
3261;SDS011;1643;47.746;9.000;2023-04-15T02:07:25;5.40;;;1.90;;
3261;SDS011;1643;47.746;9.000;2023-04-15T02:09:52;4.20;;;1.80;;
3261;SDS011;1643;47.746;9.000;2023-04-15T02:12:18;4.10;;;2.17;;
3261;SDS011;1643;47.746;9.000;2023-04-15T02:14:44;2.10;;;1.90;;
3261;SDS011;1643;47.746;9.000;2023-04-15T02:17:09;4.93;;;2.27;;
3261;SDS011;1643;47.746;9.000;2023-04-15T02:19:35;2.53;;;1.90;;
3261;SDS011;1643;47.746;9.000;2023-04-15T02:22:01;4.50;;;2.80;;
3261;SDS011;1643;47.746;9.000;2023-04-15T02:24:27;3.60;;;2.03;;
3261;SDS011;1643;47.746;9.000;2023-04-15T02:26:55;8.13;;;2.27;;
3261;SDS011;1643;47.746;9.000;2023-04-15T02:29:21;3.20;;;2.20;;
3261;SDS011;1643;47.746;9.000;2023-04-15T02:31:47;4.97;;;2.30;;
3261;SDS011;1643;47.746;9.000;2023-04-15T02:34:13;4.10;;;2.00;;
3261;SDS011;1643;47.746;9.000;2023-04-15T02:36:39;3.83;;;2.17;;
3261;SDS011;1643;47.746;9.000;2023-04-15T02:39:05;5.03;;;2.13;;
3261;SDS011;1643;47.746;9.000;2023-04-15T02:41:30;2.37;;;2.10;;
3261;SDS011;1643;47.746;9.000;2023-04-15T02:43:56;2.50;;;1.53;;
3261;SDS011;1643;47.746;9.000;2023-04-15T02:46:22;2.13;;;1.50;;
3261;SDS011;1643;47.746;9.000;2023-04-15T02:48:48;2.57;;;2.20;;
3261;SDS011;1643;47.746;9.000;2023-04-15T02:51:15;6.07;;;2.37;;
3261;SDS011;1643;47.746;9.000;2023-04-15T02:53:43;3.70;;;2.23;;
3261;SDS011;1643;47.746;9.000;2023-04-15T02:56:09;2.20;;;1.83;;
3261;SDS011;1643;47.746;9.000;2023-04-15T02:58:35;2.90;;;1.80;;
3261;SDS011;1643;47.746;9.000;2023-04-15T03:01:01;6.50;;;2.30;;
3261;SDS011;1643;47.746;9.000;2023-04-15T03:03:27;2.70;;;1.83;;
3261;SDS011;1643;47.746;9.000;2023-04-15T03:05:52;2.83;;;1.70;;
3261;SDS011;1643;47.746;9.000;2023-04-15T03:08:18;4.60;;;2.00;;
3261;SDS011;1643;47.746;9.000;2023-04-15T03:10:45;3.37;;;1.93;;
3261;SDS011;1643;47.746;9.000;2023-04-15T03:13:11;5.77;;;1.87;;
3261;SDS011;1643;47.746;9.000;2023-04-15T03:15:37;1.70;;;1.60;;
3261;SDS011;1643;47.746;9.000;2023-04-15T03:18:02;2.53;;;1.90;;
3261;SDS011;1643;47.746;9.000;2023-04-15T03:20:28;2.70;;;1.90;;
3261;SDS011;1643;47.746;9.000;2023-04-15T03:22:54;2.30;;;2.10;;
3261;SDS011;1643;47.746;9.000;2023-04-15T03:25:20;1.70;;;1.60;;
3261;SDS011;1643;47.746;9.000;2023-04-15T03:27:45;3.20;;;2.00;;
3261;SDS011;1643;47.746;9.000;2023-04-15T03:30:11;2.03;;;1.80;;
3261;SDS011;1643;47.746;9.000;2023-04-15T03:32:37;3.27;;;1.93;;
3261;SDS011;1643;47.746;9.000;2023-04-15T03:35:03;1.83;;;1.73;;
3261;SDS011;1643;47.746;9.000;2023-04-15T03:37:29;2.10;;;1.90;;
3261;SDS011;1643;47.746;9.000;2023-04-15T03:39:54;2.60;;;1.90;;
3261;SDS011;1643;47.746;9.000;2023-04-15T03:42:20;1.80;;;1.70;;
3261;SDS011;1643;47.746;9.000;2023-04-15T03:44:46;3.00;;;1.67;;
3261;SDS011;1643;47.746;9.000;2023-04-15T03:47:11;3.40;;;1.60;;
3261;SDS011;1643;47.746;9.000;2023-04-15T03:49:37;1.93;;;1.60;;
3261;SDS011;1643;47.746;9.000;2023-04-15T03:52:02;6.83;;;2.10;;
3261;SDS011;1643;47.746;9.000;2023-04-15T03:54:28;2.60;;;2.20;;
3261;SDS011;1643;47.746;9.000;2023-04-15T03:56:54;1.97;;;1.50;;
3261;SDS011;1643;47.746;9.000;2023-04-15T03:59:20;2.40;;;1.67;;
3261;SDS011;1643;47.746;9.000;2023-04-15T04:01:46;3.43;;;1.90;;
3261;SDS011;1643;47.746;9.000;2023-04-15T04:04:11;1.83;;;1.63;;
3261;SDS011;1643;47.746;9.000;2023-04-15T04:06:37;2.40;;;1.80;;
3261;SDS011;1643;47.746;9.000;2023-04-15T04:09:03;3.73;;;1.93;;
3261;SDS011;1643;47.746;9.000;2023-04-15T04:11:29;3.87;;;2.30;;
3261;SDS011;1643;47.746;9.000;2023-04-15T04:13:55;2.03;;;1.83;;
3261;SDS011;1643;47.746;9.000;2023-04-15T04:16:21;2.53;;;1.53;;
3261;SDS011;1643;47.746;9.000;2023-04-15T04:18:47;3.50;;;1.77;;
3261;SDS011;1643;47.746;9.000;2023-04-15T04:21:12;3.90;;;2.00;;
3261;SDS011;1643;47.746;9.000;2023-04-15T04:23:38;2.30;;;2.10;;
3261;SDS011;1643;47.746;9.000;2023-04-15T04:26:03;13.03;;;2.63;;
3261;SDS011;1643;47.746;9.000;2023-04-15T04:28:29;3.37;;;2.20;;
3261;SDS011;1643;47.746;9.000;2023-04-15T04:30:55;2.20;;;2.00;;
3261;SDS011;1643;47.746;9.000;2023-04-15T04:33:21;4.47;;;1.90;;
3261;SDS011;1643;47.746;9.000;2023-04-15T04:35:46;4.63;;;2.23;;
3261;SDS011;1643;47.746;9.000;2023-04-15T04:38:12;2.57;;;1.63;;
3261;SDS011;1643;47.746;9.000;2023-04-15T04:40:38;2.40;;;2.07;;
3261;SDS011;1643;47.746;9.000;2023-04-15T04:43:03;3.97;;;2.13;;
3261;SDS011;1643;47.746;9.000;2023-04-15T04:45:29;4.63;;;2.80;;
3261;SDS011;1643;47.746;9.000;2023-04-15T04:47:55;4.07;;;2.27;;
3261;SDS011;1643;47.746;9.000;2023-04-15T04:50:20;2.87;;;2.10;;
3261;SDS011;1643;47.746;9.000;2023-04-15T04:52:46;3.50;;;1.90;;
3261;SDS011;1643;47.746;9.000;2023-04-15T04:55:12;3.57;;;1.97;;
3261;SDS011;1643;47.746;9.000;2023-04-15T04:57:37;3.37;;;1.73;;
3261;SDS011;1643;47.746;9.000;2023-04-15T05:00:06;8.20;;;2.10;;
3261;SDS011;1643;47.746;9.000;2023-04-15T05:02:33;2.97;;;2.13;;
3261;SDS011;1643;47.746;9.000;2023-04-15T05:04:59;2.40;;;2.10;;
3261;SDS011;1643;47.746;9.000;2023-04-15T05:07:25;2.40;;;2.07;;
3261;SDS011;1643;47.746;9.000;2023-04-15T05:09:51;2.03;;;1.70;;
3261;SDS011;1643;47.746;9.000;2023-04-15T05:12:17;3.70;;;1.67;;
3261;SDS011;1643;47.746;9.000;2023-04-15T05:14:42;2.00;;;1.80;;
3261;SDS011;1643;47.746;9.000;2023-04-15T05:17:08;4.03;;;2.30;;
3261;SDS011;1643;47.746;9.000;2023-04-15T05:19:35;5.00;;;2.53;;
3261;SDS011;1643;47.746;9.000;2023-04-15T05:22:00;3.67;;;2.33;;
3261;SDS011;1643;47.746;9.000;2023-04-15T05:24:26;3.23;;;2.20;;
3261;SDS011;1643;47.746;9.000;2023-04-15T05:26:52;2.07;;;1.83;;
3261;SDS011;1643;47.746;9.000;2023-04-15T05:29:17;4.40;;;2.00;;
3261;SDS011;1643;47.746;9.000;2023-04-15T05:31:43;3.27;;;2.40;;
3261;SDS011;1643;47.746;9.000;2023-04-15T05:34:08;1.87;;;1.57;;
3261;SDS011;1643;47.746;9.000;2023-04-15T05:36:35;5.60;;;2.23;;
3261;SDS011;1643;47.746;9.000;2023-04-15T05:39:01;2.87;;;2.40;;
3261;SDS011;1643;47.746;9.000;2023-04-15T05:41:28;2.47;;;1.80;;
3261;SDS011;1643;47.746;9.000;2023-04-15T05:43:54;2.47;;;2.27;;
3261;SDS011;1643;47.746;9.000;2023-04-15T05:46:20;2.17;;;1.70;;
3261;SDS011;1643;47.746;9.000;2023-04-15T05:48:46;3.70;;;2.10;;
3261;SDS011;1643;47.746;9.000;2023-04-15T05:51:12;3.50;;;2.07;;
3261;SDS011;1643;47.746;9.000;2023-04-15T05:53:37;2.23;;;2.03;;
3261;SDS011;1643;47.746;9.000;2023-04-15T05:56:05;4.60;;;2.97;;
3261;SDS011;1643;47.746;9.000;2023-04-15T05:58:31;5.37;;;3.17;;
3261;SDS011;1643;47.746;9.000;2023-04-15T06:00:56;7.40;;;2.70;;
3261;SDS011;1643;47.746;9.000;2023-04-15T06:03:22;3.70;;;2.50;;
3261;SDS011;1643;47.746;9.000;2023-04-15T06:05:48;4.60;;;2.57;;
3261;SDS011;1643;47.746;9.000;2023-04-15T06:08:13;4.50;;;2.50;;
3261;SDS011;1643;47.746;9.000;2023-04-15T06:10:39;3.40;;;2.50;;
3261;SDS011;1643;47.746;9.000;2023-04-15T06:13:05;6.20;;;3.23;;
3261;SDS011;1643;47.746;9.000;2023-04-15T06:15:32;4.27;;;2.70;;
3261;SDS011;1643;47.746;9.000;2023-04-15T06:17:57;2.60;;;2.23;;
3261;SDS011;1643;47.746;9.000;2023-04-15T06:20:23;2.33;;;2.13;;
3261;SDS011;1643;47.746;9.000;2023-04-15T06:22:49;3.20;;;2.63;;
3261;SDS011;1643;47.746;9.000;2023-04-15T06:25:15;2.27;;;2.07;;
3261;SDS011;1643;47.746;9.000;2023-04-15T06:27:41;4.20;;;3.00;;
3261;SDS011;1643;47.746;9.000;2023-04-15T06:30:06;2.67;;;2.33;;
3261;SDS011;1643;47.746;9.000;2023-04-15T06:32:33;4.60;;;3.10;;
3261;SDS011;1643;47.746;9.000;2023-04-15T06:34:58;6.07;;;3.20;;
3261;SDS011;1643;47.746;9.000;2023-04-15T06:37:24;4.90;;;3.00;;
3261;SDS011;1643;47.746;9.000;2023-04-15T06:39:49;5.37;;;3.30;;
3261;SDS011;1643;47.746;9.000;2023-04-15T06:42:15;4.40;;;2.33;;
3261;SDS011;1643;47.746;9.000;2023-04-15T06:44:41;4.47;;;2.47;;
3261;SDS011;1643;47.746;9.000;2023-04-15T06:47:06;4.57;;;2.87;;
3261;SDS011;1643;47.746;9.000;2023-04-15T06:49:33;3.67;;;2.37;;
3261;SDS011;1643;47.746;9.000;2023-04-15T06:51:59;2.50;;;2.27;;
3261;SDS011;1643;47.746;9.000;2023-04-15T06:54:25;4.57;;;2.47;;
3261;SDS011;1643;47.746;9.000;2023-04-15T06:56:51;3.73;;;2.73;;
3261;SDS011;1643;47.746;9.000;2023-04-15T06:59:17;4.10;;;3.03;;
3261;SDS011;1643;47.746;9.000;2023-04-15T07:01:43;5.80;;;2.57;;
3261;SDS011;1643;47.746;9.000;2023-04-15T07:04:08;5.80;;;3.50;;
3261;SDS011;1643;47.746;9.000;2023-04-15T07:06:35;4.10;;;3.00;;
3261;SDS011;1643;47.746;9.000;2023-04-15T07:09:00;4.37;;;3.43;;
3261;SDS011;1643;47.746;9.000;2023-04-15T07:11:27;4.93;;;3.03;;
3261;SDS011;1643;47.746;9.000;2023-04-15T07:13:53;7.60;;;3.70;;
3261;SDS011;1643;47.746;9.000;2023-04-15T07:16:18;6.57;;;3.90;;
3261;SDS011;1643;47.746;9.000;2023-04-15T07:18:44;4.13;;;3.33;;
3261;SDS011;1643;47.746;9.000;2023-04-15T07:21:09;3.30;;;3.00;;
3261;SDS011;1643;47.746;9.000;2023-04-15T07:23:35;8.97;;;3.33;;
3261;SDS011;1643;47.746;9.000;2023-04-15T07:26:01;3.93;;;3.50;;
3261;SDS011;1643;47.746;9.000;2023-04-15T07:28:27;7.53;;;3.60;;
3261;SDS011;1643;47.746;9.000;2023-04-15T07:30:54;4.90;;;3.80;;
3261;SDS011;1643;47.746;9.000;2023-04-15T07:33:21;4.50;;;3.77;;
3261;SDS011;1643;47.746;9.000;2023-04-15T07:35:47;5.73;;;3.80;;
3261;SDS011;1643;47.746;9.000;2023-04-15T07:38:13;5.03;;;3.70;;
3261;SDS011;1643;47.746;9.000;2023-04-15T07:40:38;6.00;;;3.70;;
3261;SDS011;1643;47.746;9.000;2023-04-15T07:43:04;3.50;;;3.13;;
3261;SDS011;1643;47.746;9.000;2023-04-15T07:45:30;4.30;;;2.80;;
3261;SDS011;1643;47.746;9.000;2023-04-15T07:47:56;5.43;;;2.80;;
3261;SDS011;1643;47.746;9.000;2023-04-15T07:50:22;5.20;;;2.80;;
3261;SDS011;1643;47.746;9.000;2023-04-15T07:52:48;8.00;;;3.60;;
3261;SDS011;1643;47.746;9.000;2023-04-15T07:55:15;4.60;;;2.90;;
3261;SDS011;1643;47.746;9.000;2023-04-15T07:57:43;3.87;;;2.90;;
3261;SDS011;1643;47.746;9.000;2023-04-15T08:00:09;6.07;;;3.53;;
3261;SDS011;1643;47.746;9.000;2023-04-15T08:02:35;3.10;;;2.80;;
3261;SDS011;1643;47.746;9.000;2023-04-15T08:05:01;3.90;;;3.00;;
3261;SDS011;1643;47.746;9.000;2023-04-15T08:07:28;4.10;;;2.80;;
3261;SDS011;1643;47.746;9.000;2023-04-15T08:09:54;4.63;;;2.90;;
3261;SDS011;1643;47.746;9.000;2023-04-15T08:12:20;5.87;;;3.40;;
3261;SDS011;1643;47.746;9.000;2023-04-15T08:14:46;4.53;;;3.00;;
3261;SDS011;1643;47.746;9.000;2023-04-15T08:17:12;4.43;;;2.90;;
3261;SDS011;1643;47.746;9.000;2023-04-15T08:19:38;4.27;;;3.40;;
3261;SDS011;1643;47.746;9.000;2023-04-15T08:22:04;2.87;;;2.67;;
3261;SDS011;1643;47.746;9.000;2023-04-15T08:24:30;8.47;;;3.80;;
3261;SDS011;1643;47.746;9.000;2023-04-15T08:26:56;3.40;;;3.10;;
3261;SDS011;1643;47.746;9.000;2023-04-15T08:29:22;3.77;;;3.33;;
3261;SDS011;1643;47.746;9.000;2023-04-15T08:31:48;3.83;;;2.93;;
3261;SDS011;1643;47.746;9.000;2023-04-15T08:34:13;5.43;;;3.50;;
3261;SDS011;1643;47.746;9.000;2023-04-15T08:36:39;6.30;;;3.20;;
3261;SDS011;1643;47.746;9.000;2023-04-15T08:39:06;5.23;;;3.13;;
3261;SDS011;1643;47.746;9.000;2023-04-15T08:41:39;3.73;;;2.50;;
3261;SDS011;1643;47.746;9.000;2023-04-15T08:44:10;7.17;;;3.20;;
3261;SDS011;1643;47.746;9.000;2023-04-15T08:46:36;5.00;;;2.90;;
3261;SDS011;1643;47.746;9.000;2023-04-15T08:49:04;6.47;;;3.13;;
3261;SDS011;1643;47.746;9.000;2023-04-15T08:51:33;3.90;;;3.17;;
3261;SDS011;1643;47.746;9.000;2023-04-15T08:53:59;3.83;;;3.20;;
3261;SDS011;1643;47.746;9.000;2023-04-15T08:56:26;3.87;;;2.87;;
3261;SDS011;1643;47.746;9.000;2023-04-15T08:58:54;7.50;;;3.60;;
3261;SDS011;1643;47.746;9.000;2023-04-15T09:01:21;6.77;;;3.33;;
3261;SDS011;1643;47.746;9.000;2023-04-15T09:03:47;3.90;;;3.07;;
3261;SDS011;1643;47.746;9.000;2023-04-15T09:06:15;5.10;;;2.90;;
3261;SDS011;1643;47.746;9.000;2023-04-15T09:08:41;4.47;;;3.67;;
3261;SDS011;1643;47.746;9.000;2023-04-15T09:11:06;3.50;;;2.70;;
3261;SDS011;1643;47.746;9.000;2023-04-15T09:13:32;7.33;;;2.97;;
3261;SDS011;1643;47.746;9.000;2023-04-15T09:16:00;6.90;;;2.80;;
3261;SDS011;1643;47.746;9.000;2023-04-15T09:18:31;3.70;;;2.80;;
3261;SDS011;1643;47.746;9.000;2023-04-15T09:21:03;3.97;;;3.00;;
3261;SDS011;1643;47.746;9.000;2023-04-15T09:23:33;3.70;;;2.80;;
3261;SDS011;1643;47.746;9.000;2023-04-15T09:26:00;8.20;;;3.00;;
3261;SDS011;1643;47.746;9.000;2023-04-15T09:28:26;3.03;;;2.23;;
3261;SDS011;1643;47.746;9.000;2023-04-15T09:30:56;5.70;;;2.57;;
3261;SDS011;1643;47.746;9.000;2023-04-15T09:33:25;4.83;;;2.30;;
3261;SDS011;1643;47.746;9.000;2023-04-15T09:36:04;4.57;;;2.77;;
3261;SDS011;1643;47.746;9.000;2023-04-15T09:38:30;5.50;;;2.40;;
3261;SDS011;1643;47.746;9.000;2023-04-15T09:40:56;4.23;;;2.53;;
3261;SDS011;1643;47.746;9.000;2023-04-15T09:43:36;2.83;;;2.57;;
3261;SDS011;1643;47.746;9.000;2023-04-15T09:46:05;2.80;;;2.00;;
3261;SDS011;1643;47.746;9.000;2023-04-15T09:48:31;3.70;;;2.40;;
3261;SDS011;1643;47.746;9.000;2023-04-15T09:50:57;3.87;;;2.60;;
3261;SDS011;1643;47.746;9.000;2023-04-15T09:53:23;4.13;;;2.40;;
3261;SDS011;1643;47.746;9.000;2023-04-15T09:55:50;3.83;;;2.67;;
3261;SDS011;1643;47.746;9.000;2023-04-15T09:58:21;2.80;;;2.27;;
3261;SDS011;1643;47.746;9.000;2023-04-15T10:00:47;4.30;;;3.20;;
3261;SDS011;1643;47.746;9.000;2023-04-15T10:03:24;4.50;;;2.50;;
3261;SDS011;1643;47.746;9.000;2023-04-15T10:05:52;3.30;;;2.73;;
3261;SDS011;1643;47.746;9.000;2023-04-15T10:08:21;4.27;;;2.27;;
3261;SDS011;1643;47.746;9.000;2023-04-15T10:10:49;4.03;;;2.57;;
3261;SDS011;1643;47.746;9.000;2023-04-15T10:13:19;3.37;;;2.60;;
3261;SDS011;1643;47.746;9.000;2023-04-15T10:15:51;7.30;;;2.87;;
3261;SDS011;1643;47.746;9.000;2023-04-15T10:18:25;5.00;;;2.50;;
3261;SDS011;1643;47.746;9.000;2023-04-15T10:20:52;5.33;;;2.90;;
3261;SDS011;1643;47.746;9.000;2023-04-15T10:23:19;8.40;;;3.43;;
3261;SDS011;1643;47.746;9.000;2023-04-15T10:25:46;3.97;;;2.30;;
3261;SDS011;1643;47.746;9.000;2023-04-15T10:28:14;4.60;;;2.70;;
3261;SDS011;1643;47.746;9.000;2023-04-15T10:30:41;3.70;;;2.73;;
3261;SDS011;1643;47.746;9.000;2023-04-15T10:33:07;8.80;;;5.00;;
3261;SDS011;1643;47.746;9.000;2023-04-15T10:35:35;3.13;;;2.60;;
3261;SDS011;1643;47.746;9.000;2023-04-15T10:38:01;2.60;;;2.30;;
3261;SDS011;1643;47.746;9.000;2023-04-15T10:42:56;4.07;;;2.80;;
3261;SDS011;1643;47.746;9.000;2023-04-15T10:45:27;4.40;;;2.70;;
3261;SDS011;1643;47.746;9.000;2023-04-15T10:47:57;4.03;;;2.80;;
3261;SDS011;1643;47.746;9.000;2023-04-15T10:50:34;3.70;;;2.40;;
3261;SDS011;1643;47.746;9.000;2023-04-15T10:53:34;4.13;;;2.00;;
3261;SDS011;1643;47.746;9.000;2023-04-15T10:56:01;8.20;;;2.53;;
3261;SDS011;1643;47.746;9.000;2023-04-15T10:58:30;7.77;;;2.93;;
3261;SDS011;1643;47.746;9.000;2023-04-15T11:01:06;2.50;;;2.23;;
3261;SDS011;1643;47.746;9.000;2023-04-15T11:03:38;4.30;;;2.80;;
3261;SDS011;1643;47.746;9.000;2023-04-15T11:06:06;4.23;;;2.30;;
3261;SDS011;1643;47.746;9.000;2023-04-15T11:08:51;3.87;;;2.60;;
3261;SDS011;1643;47.746;9.000;2023-04-15T11:11:19;2.60;;;2.10;;
3261;SDS011;1643;47.746;9.000;2023-04-15T11:13:49;5.77;;;2.50;;
3261;SDS011;1643;47.746;9.000;2023-04-15T11:16:16;4.40;;;2.73;;
3261;SDS011;1643;47.746;9.000;2023-04-15T11:18:42;3.83;;;2.30;;
3261;SDS011;1643;47.746;9.000;2023-04-15T11:21:18;3.93;;;2.20;;
3261;SDS011;1643;47.746;9.000;2023-04-15T11:23:48;4.43;;;3.20;;
3261;SDS011;1643;47.746;9.000;2023-04-15T11:26:15;3.97;;;2.40;;
3261;SDS011;1643;47.746;9.000;2023-04-15T11:28:41;6.83;;;2.40;;
3261;SDS011;1643;47.746;9.000;2023-04-15T11:31:15;2.80;;;2.30;;
3261;SDS011;1643;47.746;9.000;2023-04-15T11:33:45;3.97;;;1.90;;
3261;SDS011;1643;47.746;9.000;2023-04-15T11:36:18;2.23;;;1.93;;
3261;SDS011;1643;47.746;9.000;2023-04-15T11:38:45;2.10;;;1.90;;
3261;SDS011;1643;47.746;9.000;2023-04-15T11:41:11;6.70;;;2.20;;
3261;SDS011;1643;47.746;9.000;2023-04-15T11:43:37;2.73;;;1.73;;
3261;SDS011;1643;47.746;9.000;2023-04-15T11:46:02;1.77;;;1.60;;
3261;SDS011;1643;47.746;9.000;2023-04-15T11:48:29;6.00;;;1.87;;
3261;SDS011;1643;47.746;9.000;2023-04-15T11:50:58;2.03;;;1.90;;
3261;SDS011;1643;47.746;9.000;2023-04-15T11:53:35;3.80;;;2.17;;
3261;SDS011;1643;47.746;9.000;2023-04-15T11:56:09;3.30;;;2.03;;
3261;SDS011;1643;47.746;9.000;2023-04-15T11:58:40;4.80;;;2.50;;
3261;SDS011;1643;47.746;9.000;2023-04-15T12:01:07;2.50;;;1.80;;
3261;SDS011;1643;47.746;9.000;2023-04-15T12:11:16;2.97;;;1.70;;
3261;SDS011;1643;47.746;9.000;2023-04-15T12:13:55;3.60;;;1.50;;
3261;SDS011;1643;47.746;9.000;2023-04-15T12:16:27;3.73;;;1.70;;
3261;SDS011;1643;47.746;9.000;2023-04-15T12:18:54;2.33;;;1.70;;
3261;SDS011;1643;47.746;9.000;2023-04-15T12:21:22;1.63;;;1.53;;
3261;SDS011;1643;47.746;9.000;2023-04-15T12:23:49;2.40;;;1.50;;
3261;SDS011;1643;47.746;9.000;2023-04-15T12:26:26;2.40;;;1.50;;
3261;SDS011;1643;47.746;9.000;2023-04-15T12:28:53;3.40;;;1.53;;
3261;SDS011;1643;47.746;9.000;2023-04-15T12:31:21;3.10;;;1.80;;
3261;SDS011;1643;47.746;9.000;2023-04-15T12:33:47;4.17;;;1.70;;
3261;SDS011;1643;47.746;9.000;2023-04-15T12:36:13;2.83;;;2.17;;
3261;SDS011;1643;47.746;9.000;2023-04-15T12:38:39;2.70;;;1.60;;
3261;SDS011;1643;47.746;9.000;2023-04-15T12:41:05;3.10;;;1.80;;
3261;SDS011;1643;47.746;9.000;2023-04-15T12:43:30;3.10;;;1.53;;
3261;SDS011;1643;47.746;9.000;2023-04-15T12:45:56;1.87;;;1.33;;
3261;SDS011;1643;47.746;9.000;2023-04-15T12:48:22;2.30;;;1.53;;
3261;SDS011;1643;47.746;9.000;2023-04-15T12:50:47;4.03;;;2.00;;
3261;SDS011;1643;47.746;9.000;2023-04-15T12:53:13;1.97;;;1.50;;
3261;SDS011;1643;47.746;9.000;2023-04-15T12:55:38;2.77;;;1.80;;
3261;SDS011;1643;47.746;9.000;2023-04-15T12:58:04;5.87;;;2.00;;
3261;SDS011;1643;47.746;9.000;2023-04-15T13:00:32;2.70;;;1.40;;
3261;SDS011;1643;47.746;9.000;2023-04-15T13:02:58;3.20;;;1.50;;
3261;SDS011;1643;47.746;9.000;2023-04-15T13:05:24;2.23;;;1.40;;
3261;SDS011;1643;47.746;9.000;2023-04-15T13:07:49;1.93;;;1.70;;
3261;SDS011;1643;47.746;9.000;2023-04-15T13:10:15;3.97;;;1.40;;
3261;SDS011;1643;47.746;9.000;2023-04-15T13:12:41;3.40;;;1.30;;
3261;SDS011;1643;47.746;9.000;2023-04-15T13:15:07;1.70;;;1.60;;
3261;SDS011;1643;47.746;9.000;2023-04-15T13:17:35;3.47;;;1.40;;
3261;SDS011;1643;47.746;9.000;2023-04-15T13:20:00;1.97;;;1.40;;
3261;SDS011;1643;47.746;9.000;2023-04-15T13:22:26;3.00;;;1.60;;
3261;SDS011;1643;47.746;9.000;2023-04-15T13:24:52;4.60;;;1.50;;
3261;SDS011;1643;47.746;9.000;2023-04-15T13:27:17;2.90;;;1.27;;
3261;SDS011;1643;47.746;9.000;2023-04-15T13:29:43;3.47;;;2.20;;
3261;SDS011;1643;47.746;9.000;2023-04-15T13:32:09;5.43;;;2.43;;
3261;SDS011;1643;47.746;9.000;2023-04-15T13:34:34;3.03;;;1.90;;
3261;SDS011;1643;47.746;9.000;2023-04-15T13:37:06;3.43;;;1.70;;
3261;SDS011;1643;47.746;9.000;2023-04-15T13:39:32;2.67;;;1.87;;
3261;SDS011;1643;47.746;9.000;2023-04-15T13:41:58;1.93;;;1.60;;
3261;SDS011;1643;47.746;9.000;2023-04-15T13:44:23;2.00;;;1.33;;
3261;SDS011;1643;47.746;9.000;2023-04-15T13:46:49;3.30;;;2.27;;
3261;SDS011;1643;47.746;9.000;2023-04-15T13:49:15;1.47;;;1.37;;
3261;SDS011;1643;47.746;9.000;2023-04-15T13:51:41;3.37;;;1.67;;
3261;SDS011;1643;47.746;9.000;2023-04-15T13:54:07;2.40;;;1.70;;
3261;SDS011;1643;47.746;9.000;2023-04-15T13:56:33;4.73;;;2.00;;
3261;SDS011;1643;47.746;9.000;2023-04-15T13:58:58;4.90;;;1.97;;
3261;SDS011;1643;47.746;9.000;2023-04-15T14:01:26;1.93;;;1.27;;
3261;SDS011;1643;47.746;9.000;2023-04-15T14:03:52;4.37;;;1.77;;
3261;SDS011;1643;47.746;9.000;2023-04-15T14:06:18;1.70;;;1.60;;
3261;SDS011;1643;47.746;9.000;2023-04-15T14:08:43;4.43;;;1.70;;
3261;SDS011;1643;47.746;9.000;2023-04-15T14:11:09;1.80;;;1.50;;
3261;SDS011;1643;47.746;9.000;2023-04-15T14:13:35;3.27;;;1.20;;
3261;SDS011;1643;47.746;9.000;2023-04-15T14:16:00;2.30;;;1.60;;
3261;SDS011;1643;47.746;9.000;2023-04-15T14:18:26;2.70;;;1.63;;
3261;SDS011;1643;47.746;9.000;2023-04-15T14:20:52;2.53;;;1.70;;
3261;SDS011;1643;47.746;9.000;2023-04-15T14:23:18;5.67;;;1.60;;
3261;SDS011;1643;47.746;9.000;2023-04-15T14:25:43;3.67;;;1.90;;
3261;SDS011;1643;47.746;9.000;2023-04-15T14:28:09;3.20;;;1.73;;
3261;SDS011;1643;47.746;9.000;2023-04-15T14:30:35;3.30;;;1.80;;
3261;SDS011;1643;47.746;9.000;2023-04-15T14:33:01;2.90;;;1.60;;
3261;SDS011;1643;47.746;9.000;2023-04-15T14:35:26;6.10;;;2.17;;
3261;SDS011;1643;47.746;9.000;2023-04-15T14:37:52;2.40;;;1.63;;
3261;SDS011;1643;47.746;9.000;2023-04-15T14:40:18;3.40;;;1.90;;
3261;SDS011;1643;47.746;9.000;2023-04-15T14:42:44;3.50;;;2.57;;
3261;SDS011;1643;47.746;9.000;2023-04-15T14:45:10;1.60;;;1.50;;
3261;SDS011;1643;47.746;9.000;2023-04-15T14:47:36;2.70;;;1.97;;
3261;SDS011;1643;47.746;9.000;2023-04-15T14:50:01;2.40;;;1.80;;
3261;SDS011;1643;47.746;9.000;2023-04-15T14:52:29;4.40;;;2.40;;
3261;SDS011;1643;47.746;9.000;2023-04-15T14:54:56;2.90;;;2.00;;
3261;SDS011;1643;47.746;9.000;2023-04-15T14:57:22;3.43;;;2.00;;
3261;SDS011;1643;47.746;9.000;2023-04-15T14:59:48;2.00;;;1.90;;
3261;SDS011;1643;47.746;9.000;2023-04-15T15:02:13;4.27;;;2.20;;
3261;SDS011;1643;47.746;9.000;2023-04-15T15:04:40;1.73;;;1.63;;
3261;SDS011;1643;47.746;9.000;2023-04-15T15:07:05;4.40;;;1.90;;
3261;SDS011;1643;47.746;9.000;2023-04-15T15:09:31;4.00;;;2.00;;
3261;SDS011;1643;47.746;9.000;2023-04-15T15:11:57;4.00;;;2.30;;
3261;SDS011;1643;47.746;9.000;2023-04-15T15:14:22;2.57;;;2.27;;
3261;SDS011;1643;47.746;9.000;2023-04-15T15:16:48;3.87;;;1.93;;
3261;SDS011;1643;47.746;9.000;2023-04-15T15:19:13;4.20;;;2.33;;
3261;SDS011;1643;47.746;9.000;2023-04-15T15:21:39;3.93;;;2.43;;